createdAt,value
2019-06-15T00:02:55.679Z,21.90
2019-06-15T00:06:59.929Z,21.90
2019-06-15T00:11:04.166Z,21.90
2019-06-15T00:15:09.285Z,21.80
2019-06-15T00:19:13.609Z,21.80
2019-06-15T00:23:17.851Z,21.80
2019-06-15T00:27:28.422Z,21.80
2019-06-15T00:31:32.651Z,21.70
2019-06-15T00:35:36.875Z,21.70
2019-06-15T00:39:41.079Z,21.70
2019-06-15T00:43:45.332Z,21.70
2019-06-15T00:47:49.556Z,21.70
2019-06-15T00:51:53.786Z,21.70
2019-06-15T00:55:58.038Z,21.70
2019-06-15T01:00:02.269Z,21.60
2019-06-15T01:04:06.479Z,21.60
2019-06-15T01:08:10.710Z,21.60
2019-06-15T01:12:14.933Z,21.60
2019-06-15T01:16:19.155Z,21.60
2019-06-15T01:20:23.372Z,21.50
2019-06-15T01:24:27.587Z,21.50
2019-06-15T01:28:31.824Z,21.50
2019-06-15T01:32:36.048Z,21.40
2019-06-15T01:36:40.288Z,21.30
2019-06-15T01:40:44.500Z,21.30
2019-06-15T01:44:48.747Z,21.20
2019-06-15T01:48:52.973Z,21.10
2019-06-15T01:52:57.195Z,21.00
2019-06-15T01:57:01.436Z,21.00
2019-06-15T02:01:06.188Z,20.90
2019-06-15T02:05:10.619Z,20.70
2019-06-15T02:09:14.858Z,20.70
2019-06-15T02:13:19.083Z,20.60
2019-06-15T02:17:23.321Z,20.60
2019-06-15T02:21:27.560Z,20.50
2019-06-15T02:25:36.264Z,20.50
2019-06-15T02:29:38.036Z,20.50
2019-06-15T02:33:42.265Z,20.50
2019-06-15T02:37:46.501Z,20.40
2019-06-15T02:41:51.309Z,20.40
2019-06-15T02:45:55.941Z,20.40
2019-06-15T02:50:00.172Z,20.30
2019-06-15T02:54:04.408Z,20.30
2019-06-15T02:58:08.640Z,20.30
2019-06-15T03:02:12.895Z,20.30
2019-06-15T03:06:17.102Z,20.30
2019-06-15T03:10:21.376Z,20.30
2019-06-15T03:14:25.600Z,20.20
2019-06-15T03:18:29.863Z,20.20
2019-06-15T03:22:34.095Z,20.20
2019-06-15T03:26:38.299Z,20.10
2019-06-15T03:30:43.069Z,20.10
2019-06-15T03:34:47.299Z,20.10
2019-06-15T03:38:51.546Z,20.00
2019-06-15T03:42:55.775Z,20.00
2019-06-15T03:46:59.987Z,19.90
2019-06-15T03:51:04.331Z,19.90
2019-06-15T03:55:09.080Z,19.90
2019-06-15T03:59:13.429Z,19.90
2019-06-15T04:03:17.796Z,19.80
2019-06-15T04:07:22.015Z,19.80
2019-06-15T04:11:26.240Z,19.70
2019-06-15T04:15:30.652Z,19.70
2019-06-15T04:19:34.924Z,19.70
2019-06-15T04:23:39.160Z,19.70
2019-06-15T04:27:43.392Z,19.70
2019-06-15T04:31:47.607Z,19.60
2019-06-15T04:35:51.857Z,19.60
2019-06-15T04:39:56.100Z,19.60
2019-06-15T04:44:00.344Z,19.60
2019-06-15T04:48:04.595Z,19.60
2019-06-15T04:52:08.816Z,19.60
2019-06-15T04:56:13.060Z,19.60
2019-06-15T05:00:17.333Z,19.60
2019-06-15T05:04:21.559Z,19.60
2019-06-15T05:08:25.867Z,19.60
2019-06-15T05:12:30.086Z,19.70
2019-06-15T05:16:34.319Z,19.70
2019-06-15T05:20:38.553Z,19.70
2019-06-15T05:24:42.784Z,19.70
2019-06-15T05:28:47.104Z,19.80
2019-06-15T05:32:51.311Z,19.80
2019-06-15T05:36:55.579Z,19.90
2019-06-15T05:40:59.816Z,19.90
2019-06-15T05:45:04.958Z,19.90
2019-06-15T05:49:09.163Z,20.00
2019-06-15T05:53:13.362Z,20.00
2019-06-15T05:57:21.631Z,20.00
2019-06-15T06:01:23.567Z,20.10
2019-06-15T06:05:27.811Z,20.10
2019-06-15T06:09:32.235Z,20.20
2019-06-15T06:13:36.480Z,20.20
2019-06-15T06:17:42.367Z,20.30
2019-06-15T06:21:46.717Z,20.40
2019-06-15T06:25:50.944Z,20.50
2019-06-15T06:29:55.187Z,20.60
2019-06-15T06:33:59.423Z,20.70
2019-06-15T06:38:03.868Z,20.90
2019-06-15T06:42:08.073Z,21.00
2019-06-15T06:46:12.391Z,21.20
2019-06-15T06:50:17.143Z,21.30
2019-06-15T06:54:21.917Z,21.40
2019-06-15T06:58:26.128Z,21.50
2019-06-15T07:02:30.376Z,21.50
2019-06-15T07:06:34.600Z,21.60
2019-06-15T07:10:38.831Z,21.60
2019-06-15T07:14:43.066Z,21.70
2019-06-15T07:18:47.286Z,21.80
2019-06-15T07:22:51.508Z,21.90
2019-06-15T07:26:55.763Z,22.00
2019-06-15T07:30:59.997Z,22.10
2019-06-15T07:35:04.548Z,22.20
2019-06-15T07:39:08.765Z,22.20
2019-06-15T07:43:13.023Z,22.30
2019-06-15T07:47:17.249Z,22.40
2019-06-15T07:51:21.493Z,22.40
2019-06-15T07:55:25.730Z,22.50
2019-06-15T07:59:29.947Z,22.60
2019-06-15T08:03:34.211Z,22.70
2019-06-15T08:07:38.451Z,22.80
2019-06-15T08:11:45.754Z,22.90
2019-06-15T08:15:48.588Z,23.00
2019-06-15T08:19:52.797Z,23.00
2019-06-15T08:23:57.040Z,23.10
2019-06-15T08:28:01.387Z,23.20
2019-06-15T08:32:05.632Z,23.30
2019-06-15T08:36:09.861Z,23.40
2019-06-15T08:40:14.124Z,23.60
2019-06-15T08:44:18.381Z,23.70
2019-06-15T08:48:22.670Z,23.80
2019-06-15T08:52:26.903Z,23.90
2019-06-15T08:56:31.132Z,23.90
2019-06-15T09:00:35.389Z,23.90
2019-06-15T09:04:39.652Z,23.90
2019-06-15T09:08:58.524Z,23.90
2019-06-15T09:13:02.740Z,23.90
2019-06-15T09:17:06.974Z,23.80
2019-06-15T09:21:11.206Z,23.70
2019-06-15T09:25:15.466Z,23.70
2019-06-15T09:29:19.698Z,23.60
2019-06-15T09:33:23.939Z,23.50
2019-06-15T09:37:28.187Z,23.40
2019-06-15T09:41:32.444Z,23.30
2019-06-15T09:45:36.686Z,23.10
2019-06-15T09:49:40.902Z,23.00
2019-06-15T09:53:45.136Z,22.90
2019-06-15T09:57:49.369Z,22.90
2019-06-15T10:01:53.624Z,22.80
2019-06-15T10:05:57.851Z,22.70
2019-06-15T10:10:02.148Z,22.70
2019-06-15T10:14:06.396Z,22.50
2019-06-15T10:18:10.633Z,22.40
2019-06-15T10:22:14.916Z,22.30
2019-06-15T10:26:19.147Z,22.20
2019-06-15T10:30:23.372Z,22.30
2019-06-15T10:34:27.636Z,22.40
2019-06-15T10:38:32.017Z,22.50
2019-06-15T10:42:36.257Z,22.50
2019-06-15T10:46:40.504Z,22.40
2019-06-15T10:50:45.001Z,22.40
2019-06-15T10:54:49.231Z,22.30
2019-06-15T10:58:53.547Z,22.20
2019-06-15T11:02:57.799Z,22.10
2019-06-15T11:07:02.077Z,22.00
2019-06-15T11:11:22.605Z,22.00
2019-06-15T11:15:26.831Z,22.00
2019-06-15T11:19:31.060Z,22.00
2019-06-15T11:23:35.275Z,22.00
2019-06-15T11:27:39.523Z,22.00
2019-06-15T11:31:44.008Z,22.00
2019-06-15T11:35:48.336Z,22.00
2019-06-15T11:39:52.555Z,22.10
2019-06-15T11:43:56.784Z,22.10
2019-06-15T11:48:01.008Z,22.20
2019-06-15T11:52:05.314Z,22.30
2019-06-15T11:56:09.556Z,22.40
2019-06-15T12:00:30.360Z,22.60
2019-06-15T12:04:20.057Z,22.60
2019-06-15T12:08:24.272Z,22.60
2019-06-15T12:12:28.476Z,22.60
2019-06-15T12:16:32.708Z,22.80
2019-06-15T12:20:38.972Z,23.10
2019-06-15T12:24:42.872Z,23.40
2019-06-15T12:28:47.106Z,23.50
2019-06-15T12:32:51.348Z,23.70
2019-06-15T12:36:55.584Z,23.80
2019-06-15T12:40:59.812Z,23.90
2019-06-15T12:45:04.137Z,24.00
2019-06-15T12:49:08.363Z,24.10
2019-06-15T12:53:12.614Z,24.20
2019-06-15T12:57:16.795Z,24.30
2019-06-15T13:01:21.066Z,24.50
2019-06-15T13:05:25.268Z,24.70
2019-06-15T13:09:29.500Z,24.90
2019-06-15T13:13:33.714Z,24.90
2019-06-15T13:17:37.929Z,24.90
2019-06-15T13:21:42.160Z,24.70
2019-06-15T13:25:46.377Z,24.60
2019-06-15T13:29:50.591Z,24.50
2019-06-15T13:33:54.827Z,24.50
2019-06-15T13:37:59.031Z,24.40
2019-06-15T13:42:03.270Z,24.20
2019-06-15T13:46:07.593Z,24.20
2019-06-15T13:50:12.023Z,24.00
2019-06-15T13:54:16.267Z,23.90
2019-06-15T13:58:20.483Z,23.80
2019-06-15T14:02:24.743Z,23.60
2019-06-15T14:06:28.980Z,23.50
2019-06-15T14:10:33.919Z,23.50
2019-06-15T14:14:38.151Z,23.60
2019-06-15T14:18:42.355Z,23.60
2019-06-15T14:22:46.577Z,23.60
2019-06-15T14:26:50.817Z,23.70
2019-06-15T14:30:55.026Z,23.80
2019-06-15T14:34:59.260Z,23.90
2019-06-15T14:39:04.692Z,23.90
2019-06-15T14:43:08.924Z,24.00
2019-06-15T14:47:13.149Z,24.20
2019-06-15T14:51:17.392Z,24.30
2019-06-15T14:55:21.826Z,24.40
2019-06-15T14:59:26.862Z,24.60
2019-06-15T15:03:31.163Z,24.70
2019-06-15T15:07:36.764Z,24.80
2019-06-15T15:11:41.190Z,24.80
2019-06-15T15:15:46.786Z,24.90
2019-06-15T15:19:51.156Z,24.90
2019-06-15T15:23:57.099Z,25.00
2019-06-15T15:28:01.252Z,25.10
2019-06-15T15:32:09.172Z,25.10
2019-06-15T15:36:11.389Z,25.20
2019-06-15T15:40:16.658Z,25.20
2019-06-15T15:44:20.932Z,25.20
2019-06-15T15:48:25.950Z,25.40
2019-06-15T15:52:30.291Z,25.50
2019-06-15T15:56:36.078Z,25.70
2019-06-15T16:04:44.019Z,26.40
2019-06-15T16:08:48.428Z,26.70
2019-06-15T16:12:52.656Z,27.00
2019-06-15T16:16:56.880Z,27.30
2019-06-15T16:21:01.292Z,27.70
2019-06-15T16:25:06.828Z,27.90
2019-06-15T16:29:11.204Z,28.20
2019-06-15T16:33:16.191Z,28.30
2019-06-15T16:37:31.849Z,28.40
2019-06-15T16:41:36.560Z,28.40
2019-06-15T16:45:40.901Z,28.20
2019-06-15T16:49:46.511Z,27.90
2019-06-15T16:53:50.815Z,27.70
2019-06-15T16:57:56.634Z,27.30
2019-06-15T17:02:01.124Z,27.00
2019-06-15T17:06:07.074Z,26.60
2019-06-15T17:10:11.460Z,26.30
2019-06-15T17:14:17.169Z,26.10
2019-06-15T17:18:21.878Z,26.00
2019-06-15T17:22:26.096Z,25.80
2019-06-15T17:26:30.547Z,25.70
2019-06-15T17:30:36.846Z,25.60
2019-06-15T17:34:40.677Z,25.40
2019-06-15T17:38:46.368Z,25.30
2019-06-15T17:42:50.749Z,25.20
2019-06-15T17:46:56.564Z,25.00
2019-06-15T17:51:01.012Z,25.00
2019-06-15T17:55:07.099Z,24.80
2019-06-15T17:59:11.733Z,24.70
2019-06-15T18:03:16.944Z,24.60
2019-06-15T18:07:21.434Z,24.40
2019-06-15T18:11:26.261Z,24.30
2019-06-15T18:15:30.621Z,24.20
2019-06-15T18:19:36.933Z,24.00
2019-06-15T18:23:42.828Z,23.90
2019-06-15T18:27:47.076Z,23.80
2019-06-15T18:31:51.363Z,23.70
2019-06-15T18:35:55.629Z,23.50
2019-06-15T18:40:00.065Z,23.30
2019-06-15T18:44:06.380Z,23.20
2019-06-15T18:48:10.388Z,23.10
2019-06-15T18:52:17.148Z,23.00
2019-06-15T18:56:21.527Z,22.90
2019-06-15T19:04:31.222Z,22.60
2019-06-15T19:08:35.518Z,22.50
2019-06-15T19:12:39.849Z,22.40
2019-06-15T19:16:44.124Z,22.30
2019-06-15T19:20:48.960Z,22.10
2019-06-15T19:24:53.265Z,22.00
2019-06-15T19:28:57.610Z,21.90
2019-06-15T19:33:01.887Z,21.80
2019-06-15T19:37:06.803Z,21.70
2019-06-15T19:41:11.227Z,21.50
2019-06-15T19:45:16.928Z,21.40
2019-06-15T19:49:21.363Z,21.30
2019-06-15T19:53:27.296Z,21.20
2019-06-15T19:57:31.500Z,21.10
2019-06-15T20:01:36.217Z,20.90
2019-06-15T20:05:40.803Z,20.80
2019-06-15T20:09:46.299Z,20.70
2019-06-15T20:13:50.714Z,20.50
2019-06-15T20:17:56.958Z,20.40
2019-06-15T20:22:00.961Z,20.30
2019-06-15T20:26:06.624Z,20.20
2019-06-15T20:30:12.624Z,20.10
2019-06-15T20:34:16.870Z,20.00
2019-06-15T20:38:21.130Z,19.90
2019-06-15T20:42:27.018Z,19.80
2019-06-15T20:46:31.423Z,19.70
2019-06-15T20:50:36.395Z,19.70
2019-06-15T20:54:40.882Z,19.60
2019-06-15T20:58:45.968Z,19.50
2019-06-15T21:02:50.522Z,19.40
2019-06-15T21:06:54.982Z,19.30
2019-06-15T21:10:59.247Z,19.20
2019-06-15T21:15:03.682Z,19.10
2019-06-15T21:19:08.004Z,19.00
2019-06-15T21:23:12.230Z,18.90
2019-06-15T21:27:16.840Z,18.80
2019-06-15T21:31:21.194Z,18.70
2019-06-15T21:35:26.720Z,18.60
2019-06-15T21:39:31.441Z,18.60
2019-06-15T21:43:36.354Z,18.50
2019-06-15T21:47:40.889Z,18.40
2019-06-15T21:51:47.395Z,18.40
2019-06-15T21:55:51.205Z,18.30
2019-06-15T21:59:56.478Z,18.30
2019-06-15T22:04:00.965Z,18.20
2019-06-15T22:08:06.391Z,18.10
2019-06-15T22:12:10.958Z,18.00
2019-06-15T22:16:16.863Z,18.00
2019-06-15T22:20:21.440Z,17.90
2019-06-15T22:24:26.768Z,17.90
2019-06-15T22:28:31.202Z,17.80
2019-06-15T22:32:35.471Z,17.80
2019-06-15T22:36:52.173Z,17.70
2019-06-15T22:40:56.566Z,17.60
2019-06-15T22:45:00.813Z,17.60
2019-06-15T22:49:07.276Z,17.50
2019-06-15T22:53:11.629Z,17.40
2019-06-15T22:57:16.734Z,17.40
2019-06-15T23:01:21.296Z,17.30
2019-06-15T23:05:26.288Z,17.20
2019-06-15T23:09:30.742Z,17.20
2019-06-15T23:13:36.874Z,17.10
2019-06-15T23:17:41.074Z,17.00
2019-06-15T23:21:46.346Z,16.90
2019-06-15T23:25:50.711Z,16.90
2019-06-15T23:29:56.999Z,16.80
2019-06-15T23:34:00.951Z,16.70
2019-06-15T23:38:06.526Z,16.70
2019-06-15T23:42:10.965Z,16.60
2019-06-15T23:46:16.029Z,16.50
2019-06-15T23:50:21.290Z,16.50
2019-06-15T23:54:27.895Z,16.40
2019-06-15T23:58:40.678Z,16.40
